CTA3 weather

Île aux Coudres Airport
Île aux Coudres, Quebec, Canada

Public forecast

Using degrees Celsius for public forecast. Weather courtesy of forecast.io.

METAR (pilot weather report)

Closest report is C J.H.L.(Joe) Lecomte) Heliport, 54.2 nm (100.4 km) WSW. Retrieved 2019/07/17 19:00 UTC (39 minutes ago):

CYOY 171900Z 30010G17KT 15SM FEW045 FEW085 BKN250 26/13 A2981 RMK CU1AC1CI7 DA2257FT LAST STFD OBS/NEXT 181300 UTC SLP097

TAF (pilot weather forecast)

Forecast is more than 12 hours old.

Closest forecast is Charlevoix Airport, 14.1 nm (26.1 km) NNE. Retrieved 2018/06/10 18:00 UTC (1 year ago):

TAF CYML 101730Z 1018/1106 12005KT P6SM FEW060 FM102100 14006KT P6SM SCT080 BECMG 1021/1023 VRB03KT RMK NXT FCST BY 110000Z